createdAt,value
2022-08-24T00:01:32.441Z,8.07
2022-08-24T00:04:17.534Z,7.97
2022-08-24T00:07:04.276Z,6.93
2022-08-24T00:09:50.736Z,6.82
2022-08-24T00:12:36.662Z,8.27
2022-08-24T00:15:21.959Z,8.80
2022-08-24T00:18:07.406Z,6.15
2022-08-24T00:20:53.199Z,6.30
2022-08-24T00:23:38.350Z,6.18
2022-08-24T00:26:28.626Z,6.63
2022-08-24T00:29:17.247Z,7.43
2022-08-24T00:32:02.708Z,6.50
2022-08-24T00:34:58.664Z,6.38
2022-08-24T00:37:45.626Z,7.22
2022-08-24T00:40:37.405Z,7.45
2022-08-24T00:43:25.580Z,7.67
2022-08-24T00:46:20.633Z,6.75
2022-08-24T00:49:13.879Z,6.15
2022-08-24T00:52:14.254Z,7.22
2022-08-24T00:55:12.681Z,6.63
2022-08-24T00:58:08.049Z,7.97
2022-08-24T01:00:59.592Z,7.43
2022-08-24T01:03:46.341Z,7.10
2022-08-24T01:06:33.393Z,8.23
2022-08-24T01:09:18.556Z,6.60
2022-08-24T01:12:04.826Z,8.83
2022-08-24T01:14:50.038Z,8.10
2022-08-24T01:17:55.158Z,6.82
2022-08-24T01:20:53.595Z,6.65
2022-08-24T01:23:47.019Z,5.80
2022-08-24T01:26:35.720Z,7.20
2022-08-24T01:29:27.900Z,8.63
2022-08-24T01:32:14.107Z,5.65
2022-08-24T01:34:59.609Z,6.20
2022-08-24T01:37:44.790Z,7.03
2022-08-24T01:40:40.310Z,7.17
2022-08-24T01:43:26.092Z,6.28
2022-08-24T01:46:11.309Z,5.90
2022-08-24T01:48:58.242Z,5.75
2022-08-24T01:51:43.800Z,6.35
2022-08-24T01:54:29.153Z,6.77
2022-08-24T01:57:17.007Z,6.85
2022-08-24T02:00:07.223Z,7.18
2022-08-24T02:02:58.334Z,6.55
2022-08-24T02:05:43.561Z,5.65
2022-08-24T02:08:34.426Z,7.23
2022-08-24T02:11:19.655Z,6.00
2022-08-24T02:14:05.940Z,5.97
2022-08-24T02:16:51.504Z,5.65
2022-08-24T02:19:44.651Z,7.53
2022-08-24T02:22:29.918Z,6.37
2022-08-24T02:25:16.687Z,7.38
2022-08-24T02:28:02.726Z,6.10
2022-08-24T02:30:48.869Z,5.13
2022-08-24T02:33:35.458Z,6.60
2022-08-24T02:36:25.275Z,7.83
2022-08-24T02:39:11.647Z,6.47
2022-08-24T02:41:56.993Z,7.47
2022-08-24T02:44:42.430Z,7.30
2022-08-24T02:47:38.135Z,6.47
2022-08-24T02:50:23.879Z,5.77
2022-08-24T02:53:10.194Z,6.30
2022-08-24T02:55:55.953Z,6.25
2022-08-24T02:58:43.413Z,6.75
2022-08-24T03:01:30.658Z,5.97
2022-08-24T03:04:17.368Z,6.00
2022-08-24T03:07:03.213Z,6.47
2022-08-24T03:09:48.621Z,6.18
2022-08-24T03:12:34.787Z,7.00
2022-08-24T03:15:24.218Z,6.70
2022-08-24T03:18:09.606Z,6.93
2022-08-24T03:20:57.621Z,5.90
2022-08-24T03:23:43.498Z,6.20
2022-08-24T03:26:29.969Z,7.25
2022-08-24T03:29:15.825Z,6.35
2022-08-24T03:32:01.941Z,11.53
2022-08-24T03:34:47.539Z,8.48
2022-08-24T03:37:33.083Z,7.78
2022-08-24T03:40:23.005Z,7.80
2022-08-24T03:43:30.149Z,6.72
2022-08-24T03:46:22.283Z,8.03
2022-08-24T03:49:10.420Z,7.13
2022-08-24T03:51:56.245Z,8.18
2022-08-24T03:54:42.056Z,9.20
2022-08-24T03:57:27.647Z,9.48
2022-08-24T04:00:13.622Z,8.50
2022-08-24T04:03:10.006Z,8.82
2022-08-24T04:05:55.819Z,10.77
2022-08-24T04:08:42.645Z,10.75
2022-08-24T04:11:29.302Z,11.85
2022-08-24T04:14:27.541Z,13.07
2022-08-24T04:17:24.718Z,16.10
2022-08-24T04:20:10.835Z,15.07
2022-08-24T04:22:58.016Z,13.77
2022-08-24T04:25:46.591Z,17.60
2022-08-24T04:28:32.237Z,14.73
2022-08-24T04:31:18.253Z,13.75
2022-08-24T04:34:04.513Z,14.43
2022-08-24T04:36:49.860Z,14.43
2022-08-24T04:39:34.955Z,14.48
2022-08-24T04:42:38.721Z,15.20
2022-08-24T04:45:25.596Z,15.60
2022-08-24T04:48:11.363Z,13.52
2022-08-24T04:51:02.832Z,14.23
2022-08-24T04:53:50.296Z,14.02
2022-08-24T04:56:36.371Z,13.83
2022-08-24T04:59:21.583Z,13.98
2022-08-24T05:02:07.002Z,14.00
2022-08-24T05:04:54.938Z,12.02
2022-08-24T05:07:41.463Z,12.48
2022-08-24T05:10:26.836Z,12.90
2022-08-24T05:13:19.746Z,11.50
2022-08-24T05:16:10.473Z,11.35
2022-08-24T05:18:56.669Z,12.13
2022-08-24T05:21:44.326Z,11.95
2022-08-24T05:24:30.047Z,11.90
2022-08-24T05:27:19.007Z,12.52
2022-08-24T05:30:05.794Z,10.25
2022-08-24T05:32:51.008Z,10.52
2022-08-24T05:35:43.820Z,13.98
2022-08-24T05:38:29.901Z,14.37
2022-08-24T05:41:16.587Z,13.90
2022-08-24T05:44:06.504Z,12.75
2022-08-24T05:46:51.977Z,12.25
2022-08-24T05:49:41.357Z,12.50
2022-08-24T05:52:28.106Z,15.77
2022-08-24T05:55:13.430Z,12.57
2022-08-24T05:58:00.057Z,12.68
2022-08-24T06:00:45.669Z,15.98
2022-08-24T06:03:31.095Z,15.18
2022-08-24T06:06:17.691Z,15.40
2022-08-24T06:09:03.802Z,14.13
2022-08-24T06:11:50.432Z,16.63
2022-08-24T06:14:36.776Z,15.07
2022-08-24T06:17:23.232Z,13.90
2022-08-24T06:20:10.457Z,13.23
2022-08-24T06:22:55.957Z,12.70
2022-08-24T06:26:05.529Z,15.80
2022-08-24T06:28:52.207Z,17.13
2022-08-24T06:31:41.960Z,17.70
2022-08-24T06:34:28.762Z,19.33
2022-08-24T06:37:14.899Z,18.13
2022-08-24T06:40:00.344Z,16.85
2022-08-24T06:42:47.074Z,20.10
2022-08-24T06:45:44.890Z,21.25
2022-08-24T06:48:31.901Z,20.03
2022-08-24T06:51:19.620Z,23.95
2022-08-24T06:54:05.125Z,22.65
2022-08-24T06:56:50.835Z,22.63
2022-08-24T06:59:36.691Z,21.38
2022-08-24T07:02:22.153Z,19.03
2022-08-24T07:05:08.163Z,23.92
2022-08-24T07:08:16.149Z,24.58
2022-08-24T07:11:02.421Z,29.02
2022-08-24T07:13:49.486Z,23.35
2022-08-24T07:16:35.604Z,20.73
2022-08-24T07:19:22.287Z,18.40
2022-08-24T07:22:07.571Z,20.40
2022-08-24T07:24:52.773Z,24.00
2022-08-24T07:27:39.636Z,19.95
2022-08-24T07:30:27.722Z,23.37
2022-08-24T07:33:15.078Z,22.90
2022-08-24T07:36:00.351Z,23.85
2022-08-24T07:38:46.796Z,21.73
2022-08-24T07:41:51.428Z,21.95
2022-08-24T07:44:44.296Z,22.47
2022-08-24T07:47:54.766Z,23.25
2022-08-24T07:50:46.394Z,21.30
2022-08-24T07:53:50.457Z,19.98
2022-08-24T07:56:37.891Z,19.98
2022-08-24T07:59:23.202Z,16.27
2022-08-24T08:02:11.656Z,17.17
2022-08-24T08:04:59.458Z,18.10
2022-08-24T08:07:51.550Z,16.92
2022-08-24T08:10:38.123Z,17.05
2022-08-24T08:13:25.248Z,16.60
2022-08-24T08:16:11.353Z,14.10
2022-08-24T08:19:11.992Z,14.85
2022-08-24T08:22:19.907Z,16.70
2022-08-24T08:25:25.059Z,14.90
2022-08-24T08:28:25.435Z,14.93
2022-08-24T08:31:12.804Z,16.92
2022-08-24T08:33:58.698Z,17.27
2022-08-24T08:36:45.406Z,15.55
2022-08-24T08:39:32.019Z,15.90
2022-08-24T08:42:33.068Z,15.90
2022-08-24T08:45:29.924Z,16.13
2022-08-24T08:48:49.989Z,17.10
2022-08-24T08:51:48.549Z,15.32
2022-08-24T08:54:45.762Z,16.00
2022-08-24T08:57:38.085Z,14.67
2022-08-24T09:00:28.323Z,15.90
2022-08-24T09:03:38.747Z,14.25
2022-08-24T09:06:57.615Z,17.70
2022-08-24T09:10:10.045Z,17.05
2022-08-24T09:13:14.760Z,16.37
2022-08-24T09:16:22.174Z,16.63
2022-08-24T09:19:32.041Z,15.85
2022-08-24T09:22:21.343Z,15.45
2022-08-24T09:25:28.569Z,18.65
2022-08-24T09:28:43.709Z,18.97
2022-08-24T09:31:44.919Z,20.73
2022-08-24T09:34:37.131Z,15.57
2022-08-24T09:37:33.515Z,16.90
2022-08-24T09:40:52.893Z,15.07
2022-08-24T09:43:47.361Z,19.20
2022-08-24T09:46:58.843Z,16.10
2022-08-24T09:50:02.720Z,16.85
2022-08-24T09:53:03.169Z,15.23
2022-08-24T09:56:03.859Z,15.10
2022-08-24T09:58:54.386Z,15.47
2022-08-24T10:02:00.373Z,13.65
2022-08-24T10:05:02.202Z,15.93
2022-08-24T10:08:05.132Z,15.27
2022-08-24T10:11:18.488Z,14.73
2022-08-24T10:14:17.464Z,15.43
2022-08-24T10:17:22.807Z,16.52
2022-08-24T10:20:25.534Z,13.43
2022-08-24T10:23:26.213Z,14.50
2022-08-24T10:26:49.460Z,15.40
2022-08-24T10:30:09.322Z,12.20
2022-08-24T10:33:20.623Z,12.80
2022-08-24T10:36:24.144Z,12.95
2022-08-24T10:39:43.451Z,12.02
2022-08-24T10:43:02.303Z,13.68
2022-08-24T10:46:12.502Z,15.00
2022-08-24T10:49:25.777Z,13.85
2022-08-24T10:52:22.073Z,13.65
2022-08-24T10:55:35.026Z,13.77
2022-08-24T10:58:34.854Z,12.55
2022-08-24T11:01:34.423Z,14.13
2022-08-24T11:04:28.429Z,13.45
2022-08-24T11:07:21.544Z,14.60
2022-08-24T11:10:10.160Z,11.88
2022-08-24T11:12:56.122Z,13.27
2022-08-24T11:15:54.428Z,14.23
2022-08-24T11:18:49.446Z,12.57
2022-08-24T11:21:51.672Z,13.38
2022-08-24T11:24:43.247Z,11.95
2022-08-24T11:27:31.207Z,12.13
2022-08-24T11:30:23.372Z,12.83
2022-08-24T11:33:32.418Z,12.25
2022-08-24T11:36:21.558Z,11.43
2022-08-24T11:39:36.522Z,13.65
2022-08-24T11:42:35.736Z,13.05
2022-08-24T11:45:34.242Z,14.23
2022-08-24T11:48:25.701Z,12.65
2022-08-24T11:51:26.314Z,10.95
2022-08-24T11:54:31.278Z,15.73
2022-08-24T11:57:29.373Z,13.02
2022-08-24T12:00:19.453Z,15.20
2022-08-24T12:03:23.864Z,14.85
2022-08-24T12:06:32.433Z,12.90
2022-08-24T12:09:36.325Z,14.63
2022-08-24T12:12:26.144Z,12.57
2022-08-24T12:15:21.084Z,14.30
2022-08-24T12:18:22.037Z,14.43
2022-08-24T12:21:12.787Z,12.75
2022-08-24T12:24:01.986Z,12.98
2022-08-24T12:26:51.163Z,12.20
2022-08-24T12:29:44.740Z,13.87
2022-08-24T12:32:42.713Z,13.00
2022-08-24T12:35:42.611Z,13.18
2022-08-24T12:38:30.360Z,13.75
2022-08-24T12:41:24.208Z,11.55
2022-08-24T12:44:15.811Z,12.17
2022-08-24T12:47:01.433Z,13.45
2022-08-24T12:49:53.185Z,11.40
2022-08-24T12:53:13.571Z,12.02
2022-08-24T12:56:20.559Z,13.30
2022-08-24T12:59:16.175Z,13.50
2022-08-24T13:02:06.098Z,14.10
2022-08-24T13:04:51.159Z,11.30
2022-08-24T13:07:44.480Z,13.52
2022-08-24T13:10:38.088Z,12.00
2022-08-24T13:13:59.435Z,10.70
2022-08-24T13:17:04.769Z,12.20
2022-08-24T13:20:28.286Z,12.65
2022-08-24T13:23:14.465Z,10.88
2022-08-24T13:26:22.960Z,10.48
2022-08-24T13:29:08.951Z,9.83
2022-08-24T13:31:59.272Z,11.80
2022-08-24T13:34:47.012Z,10.20
2022-08-24T13:37:32.283Z,12.15
2022-08-24T13:40:27.915Z,11.38
2022-08-24T13:43:30.436Z,11.13
2022-08-24T13:46:46.642Z,12.15
2022-08-24T13:50:07.752Z,10.70
2022-08-24T13:53:30.004Z,9.80
2022-08-24T13:56:31.015Z,11.32
2022-08-24T13:59:39.930Z,9.93
2022-08-24T14:02:51.447Z,10.05
2022-08-24T14:05:43.552Z,12.20
2022-08-24T14:08:54.425Z,10.90
2022-08-24T14:11:57.857Z,11.05
2022-08-24T14:15:03.173Z,9.07
2022-08-24T14:18:07.598Z,10.30
2022-08-24T14:21:06.201Z,9.75
2022-08-24T14:24:08.738Z,12.35
2022-08-24T14:27:04.863Z,9.32
2022-08-24T14:29:50.318Z,9.90
2022-08-24T14:32:44.875Z,11.50
2022-08-24T14:35:42.071Z,10.82
2022-08-24T14:38:43.614Z,9.43
2022-08-24T14:41:52.428Z,9.35
2022-08-24T14:45:00.097Z,9.50
2022-08-24T14:48:08.231Z,8.93
2022-08-24T14:51:31.603Z,10.00
2022-08-24T14:54:27.884Z,10.35
2022-08-24T14:57:16.116Z,10.98
2022-08-24T15:00:04.931Z,11.23
2022-08-24T15:03:08.313Z,9.15
2022-08-24T15:06:28.143Z,10.18
2022-08-24T15:09:27.723Z,10.57
2022-08-24T15:12:42.601Z,8.52
2022-08-24T15:15:39.492Z,10.43
2022-08-24T15:18:36.821Z,10.88
2022-08-24T15:21:41.383Z,9.00
2022-08-24T15:24:52.480Z,9.00
2022-08-24T15:27:55.874Z,10.98
2022-08-24T15:30:53.164Z,9.20
2022-08-24T15:34:11.282Z,9.77
2022-08-24T15:37:01.587Z,10.05
2022-08-24T15:39:47.040Z,9.45
2022-08-24T15:42:37.115Z,10.35
2022-08-24T15:45:22.554Z,8.93
2022-08-24T15:48:10.792Z,9.48
2022-08-24T15:50:56.434Z,9.30
2022-08-24T15:53:42.021Z,8.88
2022-08-24T15:56:35.637Z,8.77
2022-08-24T16:02:50.670Z,9.40
2022-08-24T16:05:37.322Z,8.20
2022-08-24T16:08:23.836Z,9.13
2022-08-24T16:11:26.259Z,8.45
2022-08-24T16:14:23.138Z,9.77
2022-08-24T16:17:30.497Z,8.82
2022-08-24T16:20:24.971Z,9.30
2022-08-24T16:23:13.957Z,7.60
2022-08-24T16:26:21.980Z,10.50
2022-08-24T16:29:07.545Z,7.47
2022-08-24T16:32:15.901Z,8.43
2022-08-24T16:35:08.217Z,8.10
2022-08-24T16:37:55.346Z,8.13
2022-08-24T16:40:40.720Z,8.30
2022-08-24T16:43:26.718Z,7.80
2022-08-24T16:46:12.959Z,8.02
2022-08-24T16:48:58.984Z,10.23
2022-08-24T16:51:45.449Z,10.63
2022-08-24T16:54:31.700Z,10.80
2022-08-24T16:57:20.871Z,11.93
2022-08-24T17:00:09.210Z,13.20
2022-08-24T17:02:55.131Z,10.93
2022-08-24T17:05:40.424Z,11.35
2022-08-24T17:08:28.515Z,12.65
2022-08-24T17:11:14.463Z,11.93
2022-08-24T17:13:59.703Z,10.10
2022-08-24T17:16:44.665Z,11.63
2022-08-24T17:19:31.226Z,11.20
2022-08-24T17:22:16.716Z,11.13
2022-08-24T17:25:02.053Z,10.07
2022-08-24T17:27:47.606Z,10.70
2022-08-24T17:30:33.081Z,10.23
2022-08-24T17:33:18.618Z,12.88
2022-08-24T17:36:05.467Z,12.82
2022-08-24T17:38:55.856Z,18.73
2022-08-24T17:41:41.494Z,14.80
2022-08-24T17:44:30.350Z,18.10
2022-08-24T17:47:17.407Z,14.65
2022-08-24T17:50:06.467Z,13.63
2022-08-24T17:52:58.862Z,12.33
2022-08-24T17:55:45.408Z,17.10
2022-08-24T17:58:30.769Z,19.40
2022-08-24T18:01:16.010Z,17.00
2022-08-24T18:04:04.516Z,13.88
2022-08-24T18:06:49.718Z,14.43
2022-08-24T18:09:43.061Z,13.10
2022-08-24T18:12:28.143Z,14.55
2022-08-24T18:15:13.235Z,12.40
2022-08-24T18:18:01.403Z,13.32
2022-08-24T18:20:46.767Z,13.40
2022-08-24T18:23:32.171Z,13.40
2022-08-24T18:26:27.662Z,13.07
2022-08-24T18:29:17.453Z,11.23
2022-08-24T18:32:03.895Z,10.55
2022-08-24T18:34:49.532Z,11.90
2022-08-24T18:37:34.917Z,11.25
2022-08-24T18:40:21.681Z,11.25
2022-08-24T18:43:09.038Z,10.90
2022-08-24T18:45:54.800Z,11.25
2022-08-24T18:48:39.871Z,12.23
2022-08-24T18:51:28.131Z,11.02
2022-08-24T18:54:32.390Z,11.27
2022-08-24T18:57:18.473Z,11.05
2022-08-24T19:00:05.481Z,12.50
2022-08-24T19:02:51.080Z,10.93
2022-08-24T19:05:36.245Z,13.85
2022-08-24T19:08:21.375Z,11.65
2022-08-24T19:11:07.660Z,11.60
2022-08-24T19:13:52.749Z,10.38
2022-08-24T19:16:38.243Z,10.33
2022-08-24T19:19:23.865Z,10.45
2022-08-24T19:22:10.544Z,13.52
2022-08-24T19:24:58.070Z,11.27
2022-08-24T19:27:43.444Z,13.55
2022-08-24T19:30:28.475Z,10.60
2022-08-24T19:33:19.930Z,9.38
2022-08-24T19:36:06.142Z,11.98
2022-08-24T19:38:51.151Z,14.48
2022-08-24T19:41:42.342Z,9.98
2022-08-24T19:44:51.863Z,11.70
2022-08-24T19:47:37.974Z,13.73
2022-08-24T19:50:26.031Z,10.63
2022-08-24T19:53:13.761Z,11.40
2022-08-24T19:55:59.439Z,12.73
2022-08-24T19:58:58.256Z,11.03
2022-08-24T20:01:43.575Z,9.38
2022-08-24T20:04:28.741Z,10.82
2022-08-24T20:07:17.157Z,9.90
2022-08-24T20:10:13.003Z,11.35
2022-08-24T20:12:58.206Z,10.33
2022-08-24T20:15:43.624Z,10.23
2022-08-24T20:18:35.039Z,11.07
2022-08-24T20:21:20.333Z,9.80
2022-08-24T20:24:06.362Z,10.48
2022-08-24T20:26:51.514Z,10.80
2022-08-24T20:29:36.635Z,13.35
2022-08-24T20:32:21.861Z,10.70
2022-08-24T20:35:08.225Z,9.55
2022-08-24T20:37:54.191Z,12.30
2022-08-24T20:40:39.383Z,12.30
2022-08-24T20:43:24.527Z,12.25
2022-08-24T20:46:09.957Z,20.20
2022-08-24T20:48:57.238Z,12.98
2022-08-24T20:51:42.590Z,11.80
2022-08-24T20:54:28.476Z,10.73
2022-08-24T20:57:18.124Z,11.20
2022-08-24T21:00:06.210Z,12.25
2022-08-24T21:02:52.349Z,10.60
2022-08-24T21:05:39.006Z,11.52
2022-08-24T21:08:25.786Z,11.87
2022-08-24T21:11:10.987Z,10.07
2022-08-24T21:13:55.883Z,9.65
2022-08-24T21:16:42.059Z,9.15
2022-08-24T21:19:27.908Z,9.35
2022-08-24T21:22:12.952Z,12.63
2022-08-24T21:25:01.439Z,10.35
2022-08-24T21:27:48.321Z,12.82
2022-08-24T21:30:34.964Z,11.02
2022-08-24T21:33:39.811Z,9.32
2022-08-24T21:36:26.312Z,13.43
2022-08-24T21:39:11.422Z,10.10
2022-08-24T21:41:56.514Z,9.38
2022-08-24T21:44:42.227Z,9.00
2022-08-24T21:47:27.570Z,9.80
2022-08-24T21:50:14.683Z,10.60
2022-08-24T21:53:00.344Z,9.00
2022-08-24T21:55:45.942Z,9.45
2022-08-24T21:58:31.520Z,9.85
2022-08-24T22:01:17.074Z,10.52
2022-08-24T22:04:02.544Z,8.97
2022-08-24T22:06:47.758Z,11.02
2022-08-24T22:09:32.947Z,11.45
2022-08-24T22:12:18.507Z,9.68
2022-08-24T22:15:06.366Z,9.95
2022-08-24T22:17:52.598Z,10.87
2022-08-24T22:20:37.915Z,10.98
2022-08-24T22:23:24.211Z,10.77
2022-08-24T22:26:10.598Z,8.93
2022-08-24T22:28:56.802Z,12.27
2022-08-24T22:31:45.067Z,9.27
2022-08-24T22:34:30.962Z,9.68
2022-08-24T22:37:16.435Z,8.35
2022-08-24T22:40:03.577Z,9.70
2022-08-24T22:42:48.926Z,9.60
2022-08-24T22:45:34.301Z,11.07
2022-08-24T22:48:19.808Z,9.48
2022-08-24T22:51:11.163Z,8.32
2022-08-24T22:53:57.832Z,9.73
2022-08-24T22:56:51.682Z,8.10
2022-08-24T22:59:40.322Z,13.33
2022-08-24T23:02:25.937Z,8.55
2022-08-24T23:05:11.188Z,8.77
2022-08-24T23:07:56.097Z,9.32
2022-08-24T23:10:41.413Z,10.68
2022-08-24T23:13:28.685Z,9.27
2022-08-24T23:16:14.223Z,9.65
2022-08-24T23:19:18.490Z,9.38
2022-08-24T23:22:04.619Z,9.57
2022-08-24T23:24:49.881Z,10.15
2022-08-24T23:27:38.549Z,10.20
2022-08-24T23:30:24.446Z,8.95
2022-08-24T23:33:09.247Z,11.20
2022-08-24T23:35:54.977Z,11.63
2022-08-24T23:38:41.889Z,11.13
2022-08-24T23:41:32.568Z,10.63
2022-08-24T23:44:20.562Z,10.77
2022-08-24T23:47:06.753Z,9.63
2022-08-24T23:49:51.823Z,8.68
2022-08-24T23:52:38.347Z,10.23
2022-08-24T23:55:24.728Z,8.73
2022-08-24T23:58:09.918Z,8.57
